KTWF/TWF METAR and TAF weather

Enter ICAO airport designator
Station Type Date Time Source
KTWF METAR 2019/06/26 17:53 UTC NOAA

KTWF 261753Z VRB05KT 10SM CLR 22/08 A2991 RMK AO2 SLP080 T02170083 10222 20122 56004


Station Type Date Time Source
KTWF Decoded METAR 2019/06/26 17:53 UTC NOAA

JOSLIN FLD-MAGIC VALLEY REGL, ID, United States (KTWF) 42-29N 114-29W 1266M
Jun 26, 2019 - 01:53 PM EDT / 2019.06.26 1753 UTC
Wind: Variable at 6 MPH (5 KT):0
Visibility: 10 mile(s):0
Sky conditions: clear
Temperature: 71.1 F (21.7 C)
Dew Point: 46.9 F (8.3 C)
Relative Humidity: 42%
Pressure (altimeter): 29.91 in. Hg (1012 hPa)
Pressure tendency: 0.01 inches (0.4 hPa) lower than three hours ago
ob: KTWF 261753Z VRB05KT 10SM CLR 22/08 A2991 RMK AO2 SLP080 T02170083 10222 20122 56004
cycle: 18

Station Type Date Time Source
KTWF TAF 2019/06/26 18:30 UTC NOAA

TAF KTWF 261729Z 2618/2718 35007KT P6SM BKN200
FM270300 19007KT P6SM SCT200
FM271600 27010KT P6SM SKC

Example: see airport list